Airport View

Enter AWOS ICAO identifier for current METAR.

ex. KFNL

K1K1 191315Z AUTO 09009KT 10SM CLR M06/M08 A3034 RMK AO2 T10561080

19 Feb 2019 13:30

Frequency: 118.3

Phone: 316-530-6004

Other Area AWOS: KAAO - K3AU - KBEC - KIAB

TAF KIAB 191000Z 1910/2016 07009KT 9999 OVC100 QNH3024INS BECMG 1920/1921 09012KT 9000 -SN BKN030 550509 QNH3011INS BECMG 1923/1924 07012KT 0400 +SN BKN002 OVC005 550509 QNH3003INS BECMG 2008/2009 VRB06KT 2400 SN BR OVC004 QNH2988INS BECMG 2012/2013 28006KT 9999 NSW OVC003 QNH2978INS TX01/1919Z TNM06/1911Z